createdAt,value
2018-02-20T08:05:50.587Z,9.90
2018-02-20T08:11:29.545Z,8.67
2018-02-20T08:17:09.774Z,10.43
2018-02-20T08:25:41.903Z,11.33
2018-02-20T08:35:04.987Z,14.57
2018-02-20T08:37:34.559Z,17.63
2018-02-20T08:40:04.293Z,13.03
2018-02-20T08:42:32.700Z,13.57
2018-02-20T08:45:00.960Z,13.83
2018-02-20T08:47:28.999Z,15.05
2018-02-20T08:49:57.284Z,14.73
2018-02-20T08:52:25.830Z,15.57
2018-02-20T08:54:54.533Z,15.73
2018-02-20T08:57:22.471Z,16.00
2018-02-20T08:59:50.582Z,15.13
2018-02-20T09:02:18.900Z,15.37
2018-02-20T09:04:52.500Z,15.50
2018-02-20T09:07:20.699Z,15.57
2018-02-20T09:09:49.152Z,16.00
2018-02-20T09:12:17.615Z,21.37
2018-02-20T09:14:46.129Z,15.17
2018-02-20T09:17:14.856Z,17.10
2018-02-20T09:19:42.995Z,16.93
2018-02-20T09:22:11.414Z,16.20
2018-02-20T09:24:40.006Z,17.30
2018-02-20T09:27:09.095Z,16.33
2018-02-20T09:29:37.457Z,16.10
2018-02-20T09:32:05.983Z,16.83
2018-02-20T09:34:34.766Z,17.73
2018-02-20T09:37:02.914Z,17.80
2018-02-20T09:39:32.435Z,17.13
2018-02-20T09:42:01.671Z,19.63
2018-02-20T09:44:30.156Z,17.90
2018-02-20T09:46:58.624Z,18.10
2018-02-20T09:49:26.915Z,17.80
2018-02-20T09:51:54.794Z,17.80
2018-02-20T09:54:22.875Z,19.53
2018-02-20T09:56:51.674Z,17.73
2018-02-20T09:59:19.634Z,18.63
2018-02-20T10:01:48.474Z,20.47
2018-02-20T10:04:16.766Z,19.40
2018-02-20T10:06:53.234Z,24.20
2018-02-20T10:09:21.543Z,20.63
2018-02-20T10:11:52.303Z,21.17
2018-02-20T10:14:20.348Z,19.13
2018-02-20T10:16:48.975Z,22.07
2018-02-20T10:19:16.877Z,23.37
2018-02-20T10:21:44.958Z,21.37
2018-02-20T10:24:13.116Z,21.57
2018-02-20T10:26:41.313Z,21.40
2018-02-20T10:29:09.538Z,22.13
2018-02-20T10:31:37.624Z,21.07
2018-02-20T10:34:06.266Z,22.07
2018-02-20T10:36:35.004Z,20.27
2018-02-20T10:39:03.320Z,22.50
2018-02-20T10:41:31.559Z,21.50
2018-02-20T10:44:00.632Z,21.30
2018-02-20T10:46:29.293Z,21.87
2018-02-20T10:48:57.395Z,22.90
2018-02-20T10:51:25.432Z,21.73
2018-02-20T10:53:53.531Z,20.97
2018-02-20T10:56:21.612Z,21.60
2018-02-20T10:58:50.654Z,21.13
2018-02-20T11:01:19.630Z,23.48
2018-02-20T11:03:48.019Z,28.23
2018-02-20T11:58:23.243Z,21.17
2018-02-20T12:00:51.948Z,22.63
2018-02-20T12:03:20.494Z,22.03
2018-02-20T12:05:48.846Z,20.93
2018-02-20T12:08:17.026Z,22.57
2018-02-20T12:10:54.619Z,23.43
2018-02-20T12:13:23.114Z,22.53
2018-02-20T12:16:02.971Z,25.07
2018-02-20T12:18:31.459Z,24.40
2018-02-20T12:21:00.375Z,24.10
2018-02-20T12:23:28.676Z,21.53
2018-02-20T12:25:57.801Z,21.57
2018-02-20T12:28:27.149Z,22.83
2018-02-20T12:30:55.820Z,23.63
2018-02-20T12:33:24.262Z,22.63
2018-02-20T12:35:53.405Z,21.17
2018-02-20T12:38:22.250Z,23.23
2018-02-20T12:40:51.339Z,21.03
2018-02-20T12:43:20.655Z,21.73
2018-02-20T12:45:49.140Z,23.30
2018-02-20T12:48:18.092Z,21.17
2018-02-20T12:50:46.424Z,27.53
2018-02-20T12:53:14.723Z,24.63
2018-02-20T12:55:42.654Z,23.83
2018-02-20T12:58:11.010Z,23.17
2018-02-20T13:00:39.945Z,21.80
2018-02-20T13:03:08.694Z,29.77
2018-02-20T13:05:37.350Z,20.83
2018-02-20T13:08:07.067Z,22.33
2018-02-20T13:10:35.627Z,20.27
2018-02-20T13:13:05.468Z,25.23
2018-02-20T13:15:34.247Z,21.90
2018-02-20T13:18:14.192Z,21.50
2018-02-20T13:20:42.885Z,21.23
2018-02-20T13:23:20.158Z,21.20
2018-02-20T13:25:48.969Z,23.10
2018-02-20T13:28:32.200Z,23.53
2018-02-20T13:31:01.225Z,21.83
2018-02-20T13:33:34.219Z,32.97
2018-02-20T13:36:02.632Z,22.20
2018-02-20T13:41:11.318Z,25.17
2018-02-20T13:43:40.050Z,23.73
2018-02-20T13:46:08.425Z,28.30
2018-02-20T13:48:43.070Z,24.87
2018-02-20T13:51:11.417Z,27.33
2018-02-20T13:53:40.707Z,26.30
2018-02-20T13:56:26.968Z,27.73
2018-02-20T13:58:56.828Z,31.17
2018-02-20T14:01:24.971Z,32.07
2018-02-20T14:03:53.268Z,29.70
2018-02-20T14:06:22.761Z,27.13
2018-02-20T14:08:52.522Z,27.23
2018-02-20T14:11:21.081Z,29.13
2018-02-20T14:13:49.494Z,29.67
2018-02-20T14:16:17.729Z,27.13
2018-02-20T14:18:46.298Z,27.67
2018-02-20T14:21:14.886Z,30.47
2018-02-20T14:23:48.110Z,28.37
2018-02-20T14:26:16.568Z,28.73
2018-02-20T14:28:44.669Z,28.00
2018-02-20T14:31:13.022Z,27.73
2018-02-20T14:33:41.574Z,27.97
2018-02-20T14:36:10.781Z,31.00
2018-02-20T14:38:39.140Z,25.27
2018-02-20T14:41:08.490Z,28.60
2018-02-20T14:43:37.081Z,30.30
2018-02-20T14:46:11.970Z,25.80
2018-02-20T14:48:40.285Z,30.10
2018-02-20T14:51:24.964Z,29.90
2018-02-20T14:53:53.273Z,28.33
2018-02-20T14:56:22.516Z,31.13
2018-02-20T14:58:51.392Z,29.13
2018-02-20T15:01:27.380Z,28.80
2018-02-20T15:03:55.818Z,29.50
2018-02-20T15:06:33.719Z,27.60
2018-02-20T15:09:03.292Z,27.63
2018-02-20T15:11:40.367Z,27.50
2018-02-20T15:14:09.052Z,29.67
2018-02-20T15:16:37.678Z,30.37
2018-02-20T15:19:06.019Z,32.23
2018-02-20T15:21:34.287Z,27.60
2018-02-20T15:24:04.390Z,26.53
2018-02-20T15:26:32.442Z,28.57
2018-02-20T15:29:00.910Z,31.73
2018-02-20T15:31:29.233Z,30.40
2018-02-20T15:33:57.754Z,33.13
2018-02-20T15:36:26.215Z,33.27
2018-02-20T15:38:54.687Z,32.77
2018-02-20T15:41:23.005Z,31.53
2018-02-20T15:43:52.248Z,31.20
2018-02-20T15:46:21.045Z,31.13
2018-02-20T15:48:49.204Z,36.17
2018-02-20T15:51:17.685Z,30.87
2018-02-20T15:53:46.859Z,31.47
2018-02-20T15:56:15.181Z,30.60
2018-02-20T15:58:43.682Z,35.00
2018-02-20T16:01:12.244Z,35.87
2018-02-20T16:03:46.962Z,32.87
2018-02-20T16:06:15.772Z,31.40
2018-02-20T16:08:44.830Z,29.97
2018-02-20T16:11:13.689Z,35.80
2018-02-20T16:13:45.296Z,29.53
2018-02-20T16:16:14.136Z,33.00
